Time;durP1;ratioP1;P1;durP2;ratioP2;P2;SDS_P1;SDS_P2;PMS_P1;PMS_P2;Temp;Humidity;BMP_temperature;BMP_pressure;BME280_temperature;BME280_humidity;BME280_pressure;Samples;Min_cycle;Max_cycle;Signal;HPM_P1;HPM_P2
2021/03/22 00:01:42;;;;;;;12.60;7.85;;;;;;;3.99;78.31;99116.09;5088890;28;20119;-21
2021/03/22 00:04:08;;;;;;;12.23;8.88;;;;;;;3.85;78.37;99094.16;5073272;28;20043;-22
2021/03/22 00:06:33;;;;;;;11.73;7.95;;;;;;;3.97;78.59;99100.47;5099182;28;20031;-22
2021/03/22 00:08:59;;;;;;;10.80;7.68;;;;;;;3.82;78.53;99095.38;5077715;28;20081;-22
2021/03/22 00:11:24;;;;;;;10.55;6.70;;;;;;;3.82;78.43;99089.25;5096696;28;20081;-22
2021/03/22 00:13:50;;;;;;;10.45;7.15;;;;;;;3.83;77.89;99061.88;5074508;28;20023;-22
2021/03/22 00:16:16;;;;;;;9.05;6.13;;;;;;;3.66;78.91;99071.16;5095589;28;20067;-22
2021/03/22 00:18:41;;;;;;;9.52;6.32;;;;;;;3.38;79.45;99061.56;5095293;28;20124;-22
2021/03/22 00:21:08;;;;;;;11.02;6.63;;;;;;;3.49;80.15;99074.16;5081879;28;20036;-22
2021/03/22 00:23:33;;;;;;;9.48;6.70;;;;;;;3.39;80.29;99042.91;5099489;28;20495;-22
2021/03/22 00:25:59;;;;;;;10.95;7.03;;;;;;;3.65;79.96;99048.47;5098575;28;20058;-22
2021/03/22 00:28:26;;;;;;;10.27;6.78;;;;;;;3.53;80.01;99032.41;5097449;28;20466;-22
2021/03/22 00:30:52;;;;;;;10.23;6.82;;;;;;;3.88;78.61;99040.19;5098600;28;20122;-22
2021/03/22 00:33:19;;;;;;;10.23;6.38;;;;;;;3.83;79.03;99052.16;5100423;28;20455;-22
2021/03/22 00:35:44;;;;;;;11.13;6.40;;;;;;;3.93;78.29;99045.69;5109088;28;20061;-21
2021/03/22 00:38:10;;;;;;;11.63;6.40;;;;;;;4.15;77.58;99062.97;5109022;28;20406;-22
2021/03/22 00:40:37;;;;;;;11.45;7.45;;;;;;;4.11;78.60;99050.38;5108985;28;20398;-21
2021/03/22 00:43:03;;;;;;;12.60;8.60;;;;;;;4.34;77.37;99028.88;5108920;28;20039;-22
2021/03/22 00:45:29;;;;;;;24.10;15.98;;;;;;;4.26;77.61;99010.59;5108712;28;20114;-21
2021/03/22 00:47:54;;;;;;;56.80;28.30;;;;;;;4.06;77.62;99000.03;5108834;28;20118;-22
2021/03/22 00:50:23;;;;;;;109.65;42.25;;;;;;;4.19;77.31;99011.41;5108824;28;20106;-22
2021/03/22 00:52:49;;;;;;;45.33;24.27;;;;;;;4.23;77.63;99011.81;5090646;28;20114;-22
2021/03/22 00:55:14;;;;;;;63.13;35.63;;;;;;;4.10;77.58;98982.78;5108453;28;20122;-21
2021/03/22 00:57:40;;;;;;;36.03;21.88;;;;;;;4.19;77.42;98978.94;5108966;28;20569;-22
2021/03/22 01:00:07;;;;;;;53.00;32.85;;;;;;;3.99;78.34;98968.38;5108833;28;20034;-22
2021/03/22 01:02:32;;;;;;;14.98;9.48;;;;;;;4.03;78.32;98973.03;5108784;28;20881;-23
2021/03/22 01:04:58;;;;;;;17.88;11.82;;;;;;;3.97;78.96;98959.84;5108492;28;20027;-21
2021/03/22 01:07:23;;;;;;;35.20;24.95;;;;;;;3.84;79.75;98939.53;5108148;28;20414;-21
2021/03/22 01:09:49;;;;;;;17.40;13.23;;;;;;;3.84;79.17;98913.16;5108717;28;20096;-21
2021/03/22 01:12:14;;;;;;;17.10;13.82;;;;;;;3.75;79.53;98925.75;5108329;28;20031;-21
2021/03/22 01:14:40;;;;;;;13.23;8.00;;;;;;;3.67;80.47;98930.44;5108494;28;20027;-22
2021/03/22 01:17:06;;;;;;;27.60;21.42;;;;;;;3.54;80.81;98921.50;5090346;28;20483;-22
2021/03/22 01:19:32;;;;;;;13.60;9.65;;;;;;;3.63;80.51;98912.34;5108022;28;20030;-21
2021/03/22 01:21:59;;;;;;;13.60;7.82;;;;;;;3.61;80.48;98913.56;5107975;28;20019;-22
2021/03/22 01:24:26;;;;;;;13.55;8.65;;;;;;;3.60;80.96;98915.41;5108251;28;20078;-22
2021/03/22 01:26:53;;;;;;;12.73;7.57;;;;;;;3.40;81.10;98911.94;5089511;28;20039;-21
2021/03/22 01:29:30;;;;;;;9.00;5.67;;;;;;;3.45;81.11;98927.16;5107929;28;20027;-22
2021/03/22 01:31:59;;;;;;;22.00;16.25;;;;;;;3.65;80.98;98920.06;5074070;28;20554;-22
2021/03/22 01:34:26;;;;;;;13.65;9.57;;;;;;;3.92;79.98;98915.59;5108079;28;20035;-22
2021/03/22 01:36:51;;;;;;;19.05;14.43;;;;;;;3.77;80.00;98900.00;5108630;28;20134;-22
2021/03/22 01:39:37;;;;;;;16.98;12.90;;;;;;;3.76;80.44;98897.56;5108002;28;20236;-21
2021/03/22 01:42:09;;;;;;;14.73;11.50;;;;;;;3.67;80.49;98875.06;5089217;28;20139;-22
2021/03/22 01:44:39;;;;;;;26.80;19.13;;;;;;;3.72;80.42;98893.69;5089886;28;20138;-22
2021/03/22 01:47:07;;;;;;;15.68;10.57;;;;;;;3.91;80.32;98903.44;5089694;28;20035;-21
2021/03/22 01:49:42;;;;;;;12.85;8.25;;;;;;;3.61;80.63;98874.03;5072874;28;20039;-21
2021/03/22 01:52:11;;;;;;;19.45;13.70;;;;;;;3.89;79.80;98889.66;5073349;28;20055;-22
2021/03/22 01:54:37;;;;;;;18.30;11.40;;;;;;;3.75;80.39;98882.75;5089780;28;20506;-21
2021/03/22 01:57:22;;;;;;;28.75;18.48;;;;;;;3.73;80.81;98880.31;5089466;28;20032;-22
2021/03/22 01:59:48;;;;;;;24.15;14.77;;;;;;;3.68;80.67;98869.59;5107491;28;20036;-22
2021/03/22 02:02:13;;;;;;;19.67;11.85;;;;;;;3.77;80.64;98864.91;5072445;28;20062;-22
2021/03/22 02:04:39;;;;;;;40.72;25.83;;;;;;;3.72;80.45;98862.06;5107528;28;20035;-21
2021/03/22 02:07:04;;;;;;;32.05;19.77;;;;;;;3.44;81.28;98839.38;5108026;28;20050;-21
2021/03/22 02:09:30;;;;;;;31.35;19.80;;;;;;;3.66;80.77;98863.72;5089251;28;20228;-21
2021/03/22 02:11:55;;;;;;;18.10;11.85;;;;;;;3.52;81.06;98859.44;5107426;28;20099;-22
2021/03/22 02:14:21;;;;;;;34.97;16.42;;;;;;;3.33;81.68;98845.22;5107588;28;20111;-21
2021/03/22 02:17:03;;;;;;;28.52;16.00;;;;;;;3.49;81.26;98858.00;5073011;28;20075;-21
2021/03/22 02:19:53;;;;;;;73.97;37.03;;;;;;;3.77;80.78;98876.25;5090677;28;20026;-21
2021/03/22 02:22:41;;;;;;;25.25;14.65;;;;;;;3.88;79.61;98895.94;5107463;28;20039;-21
2021/03/22 02:25:16;;;;;;;164.32;69.80;;;;;;;3.72;80.39;98888.44;5089835;28;20024;-22
2021/03/22 02:28:11;;;;;;;80.45;41.65;;;;;;;3.90;80.07;98895.72;5107400;28;20058;-21
2021/03/22 02:30:37;;;;;;;15.02;9.40;;;;;;;3.98;79.44;98888.44;5107334;28;20027;-21
2021/03/22 02:33:33;;;;;;;57.17;28.65;;;;;;;3.81;79.98;98884.59;5107429;28;20084;-22
2021/03/22 02:36:12;;;;;;;46.55;23.27;;;;;;;3.80;80.10;98875.03;5107550;28;20785;-21
2021/03/22 02:38:46;;;;;;;45.63;22.27;;;;;;;3.79;79.72;98858.41;5075528;28;20452;-22
2021/03/22 02:41:12;;;;;;;25.02;13.45;;;;;;;3.84;80.24;98865.69;5092505;28;20490;-21
2021/03/22 02:43:38;;;;;;;38.88;19.70;;;;;;;3.42;80.51;98836.94;5111428;28;20024;-21
2021/03/22 02:46:07;;;;;;;60.67;28.40;;;;;;;3.81;79.36;98845.03;5111145;28;20031;-22
2021/03/22 02:48:33;;;;;;;51.58;23.52;;;;;;;3.63;80.73;98864.09;5110992;28;20035;-22
2021/03/22 02:51:17;;;;;;;22.88;12.23;;;;;;;3.68;80.34;98839.75;5093105;28;20378;-21
2021/03/22 02:53:59;;;;;;;34.17;17.10;;;;;;;3.72;79.86;98835.69;5093014;28;20036;-22
2021/03/22 02:56:36;;;;;;;17.48;10.70;;;;;;;3.78;79.65;98840.97;5093570;28;20114;-21
2021/03/22 02:59:20;;;;;;;13.60;9.02;;;;;;;3.55;79.96;98788.66;5092812;28;20031;-22
2021/03/22 03:01:48;;;;;;;10.43;6.10;;;;;;;3.67;80.06;98817.06;5075655;28;20062;-22
2021/03/22 03:04:14;;;;;;;10.80;6.65;;;;;;;3.90;79.17;98827.97;5110972;28;20064;-21
2021/03/22 03:06:53;;;;;;;9.30;6.25;;;;;;;3.68;80.11;98829.22;5110873;28;20038;-22
2021/03/22 03:09:20;;;;;;;24.35;13.65;;;;;;;3.34;81.16;98812.59;5110534;28;20114;-21
2021/03/22 03:11:46;;;;;;;10.85;7.68;;;;;;;3.42;80.41;98815.84;5092668;28;20035;-21
2021/03/22 03:14:12;;;;;;;9.63;5.75;;;;;;;3.32;81.33;98799.63;5092667;28;20031;-22
2021/03/22 03:16:37;;;;;;;10.65;7.10;;;;;;;3.59;80.14;98810.97;5110929;28;20035;-21
2021/03/22 03:19:03;;;;;;;11.52;7.00;;;;;;;3.60;79.84;98796.78;5092785;28;20035;-22
2021/03/22 03:21:28;;;;;;;10.80;6.40;;;;;;;3.81;79.66;98818.66;5110369;28;20063;-22
2021/03/22 03:23:54;;;;;;;11.73;6.38;;;;;;;3.75;78.52;98787.84;5110418;28;20533;-22
2021/03/22 03:26:20;;;;;;;10.23;6.00;;;;;;;3.81;78.76;98810.75;5110605;28;20062;-22
2021/03/22 03:28:45;;;;;;;14.50;7.70;;;;;;;3.79;78.53;98807.50;5110190;28;20062;-22
2021/03/22 03:31:11;;;;;;;13.40;7.00;;;;;;;4.03;78.56;98827.94;5110340;28;20157;-21
2021/03/22 03:33:36;;;;;;;22.23;13.45;;;;;;;4.12;77.81;98820.59;5110306;28;20546;-21
2021/03/22 03:36:02;;;;;;;18.30;14.18;;;;;;;4.10;77.32;98827.91;5110310;28;20038;-22
2021/03/22 03:38:28;;;;;;;58.20;39.00;;;;;;;4.10;77.37;98822.66;5109962;28;20479;-21
2021/03/22 03:40:53;;;;;;;46.47;30.33;;;;;;;4.10;77.94;98829.75;5109915;28;20031;-22
2021/03/22 03:43:19;;;;;;;56.83;37.55;;;;;;;4.25;76.98;98824.22;5109824;28;20034;-21
2021/03/22 03:45:46;;;;;;;25.65;18.02;;;;;;;4.23;77.14;98817.34;5091713;28;20403;-21
2021/03/22 03:48:13;;;;;;;16.27;11.80;;;;;;;4.08;77.26;98823.88;5110097;28;20096;-21
2021/03/22 03:50:39;;;;;;;28.93;25.80;;;;;;;4.25;77.49;98829.50;5091722;28;20043;-22
2021/03/22 03:53:05;;;;;;;13.20;10.43;;;;;;;4.25;76.77;98819.78;5109960;28;20050;-21
2021/03/22 03:55:31;;;;;;;16.83;14.02;;;;;;;4.14;77.30;98823.03;5091346;28;20035;-21
2021/03/22 03:57:57;;;;;;;12.68;11.35;;;;;;;4.11;77.23;98812.91;5109988;28;20039;-22
2021/03/22 04:00:28;;;;;;;12.93;11.25;;;;;;;4.10;77.06;98803.38;5109790;28;20143;-21
2021/03/22 04:02:54;;;;;;;10.95;9.05;;;;;;;4.35;76.83;98814.03;5091364;28;20060;-22
2021/03/22 04:05:20;;;;;;;8.93;6.75;;;;;;;3.98;78.03;98806.66;5109610;28;20020;-21
2021/03/22 04:07:46;;;;;;;11.55;7.72;;;;;;;4.11;77.01;98819.00;5109732;28;20027;-21
2021/03/22 04:10:12;;;;;;;15.20;11.45;;;;;;;4.00;78.37;98817.81;5091374;28;20055;-21
2021/03/22 04:12:37;;;;;;;10.13;6.30;;;;;;;3.97;78.32;98810.31;5110028;28;20835;-22
2021/03/22 04:15:12;;;;;;;14.18;10.60;;;;;;;4.09;77.41;98814.97;5109646;28;20069;-22
2021/03/22 04:17:37;;;;;;;11.75;8.13;;;;;;;4.16;77.57;98815.72;5109781;28;20023;-22
2021/03/22 04:20:04;;;;;;;12.23;7.57;;;;;;;4.18;76.94;98818.97;5109389;28;20072;-22
2021/03/22 04:22:29;;;;;;;34.53;22.77;;;;;;;4.25;77.20;98814.50;5109300;28;20020;-21
2021/03/22 04:24:55;;;;;;;25.30;18.98;;;;;;;4.23;77.29;98821.81;5109313;28;20031;-22
2021/03/22 04:27:20;;;;;;;25.40;21.30;;;;;;;4.33;77.34;98827.47;5109089;28;20057;-22
2021/03/22 04:29:46;;;;;;;21.40;17.88;;;;;;;4.49;76.18;98820.06;5109514;28;20130;-21
2021/03/22 04:32:11;;;;;;;45.83;39.60;;;;;;;4.11;76.38;98800.53;5109591;28;20032;-22
2021/03/22 04:34:37;;;;;;;15.45;10.77;;;;;;;4.27;77.32;98832.75;5109039;28;20031;-22
2021/03/22 04:37:03;;;;;;;11.70;8.48;;;;;;;4.42;75.23;98794.53;5090912;28;20035;-22
2021/03/22 04:39:28;;;;;;;11.57;8.90;;;;;;;4.36;76.51;98821.75;5109305;28;20372;-22
2021/03/22 04:41:54;;;;;;;13.38;8.85;;;;;;;4.50;76.25;98827.78;5108753;28;20394;-22
2021/03/22 04:44:19;;;;;;;11.80;8.38;;;;;;;4.37;76.47;98822.56;5109190;28;20019;-22
2021/03/22 04:46:45;;;;;;;10.55;7.07;;;;;;;4.21;77.65;98824.66;5108950;28;20043;-22
2021/03/22 04:49:10;;;;;;;39.88;35.88;;;;;;;4.23;77.01;98822.63;5108766;28;20023;-21
2021/03/22 04:51:36;;;;;;;16.85;15.10;;;;;;;4.31;77.22;98829.50;5108629;28;20031;-22
2021/03/22 04:54:02;;;;;;;61.55;42.25;;;;;;;4.40;76.50;98811.59;5108886;28;20387;-22
2021/03/22 04:56:27;;;;;;;78.70;61.05;;;;;;;4.51;76.13;98818.03;5090485;28;20032;-22
2021/03/22 04:58:53;;;;;;;18.45;13.48;;;;;;;4.39;76.07;98815.25;5108618;28;20441;-22
2021/03/22 05:01:18;;;;;;;15.68;10.50;;;;;;;4.34;76.37;98815.88;5107351;28;20384;-21
2021/03/22 05:03:44;;;;;;;35.22;28.60;;;;;;;4.19;76.71;98799.50;5108583;28;20508;-22
2021/03/22 05:06:10;;;;;;;16.08;12.13;;;;;;;4.17;76.86;98801.53;5108777;28;20919;-21
2021/03/22 05:08:35;;;;;;;23.55;19.52;;;;;;;4.25;76.79;98808.38;5109004;28;20754;-22
2021/03/22 05:11:01;;;;;;;18.52;15.40;;;;;;;4.60;75.51;98814.16;5107950;28;20106;-22
2021/03/22 05:13:28;;;;;;;12.90;9.50;;;;;;;4.29;76.60;98807.78;5090149;28;20107;-22
2021/03/22 05:15:53;;;;;;;21.83;16.33;;;;;;;4.22;76.74;98817.53;5108386;28;20023;-21
2021/03/22 05:18:19;;;;;;;14.75;11.95;;;;;;;4.47;75.33;98827.41;5108222;28;20396;-22
2021/03/22 05:20:50;;;;;;;55.38;48.42;;;;;;;4.48;75.52;98821.91;5108237;28;20479;-22
2021/03/22 05:23:20;;;;;;;70.25;61.92;;;;;;;4.53;75.40;98832.63;5107971;28;20050;-21
2021/03/22 05:25:45;;;;;;;59.42;48.30;;;;;;;4.36;75.34;98800.63;5108303;28;20380;-22
2021/03/22 05:28:12;;;;;;;37.20;33.17;;;;;;;4.38;75.60;98809.16;5108954;28;20062;-22
2021/03/22 05:30:37;;;;;;;61.38;52.60;;;;;;;4.43;75.15;98806.72;5090069;28;20371;-22
2021/03/22 05:33:05;;;;;;;12.60;8.98;;;;;;;4.62;74.47;98809.47;5107801;28;20096;-22
2021/03/22 05:35:31;;;;;;;21.75;16.65;;;;;;;4.45;75.37;98824.16;5089703;28;20160;-22
2021/03/22 05:37:57;;;;;;;34.53;25.90;;;;;;;4.36;75.64;98805.91;5107827;28;20122;-22
2021/03/22 05:40:33;;;;;;;13.02;8.40;;;;;;;4.60;75.46;98822.06;5107903;28;20072;-21
2021/03/22 05:43:07;;;;;;;40.15;29.55;;;;;;;4.57;75.13;98828.56;5089901;28;20031;-21
2021/03/22 05:45:35;;;;;;;32.38;21.55;;;;;;;4.58;75.18;98822.28;5089345;28;20016;-22
2021/03/22 05:48:11;;;;;;;15.48;8.57;;;;;;;4.63;75.44;98819.00;5089658;28;20031;-21
2021/03/22 05:51:26;;;;;;;13.85;7.57;;;;;;;4.67;74.99;98809.63;5090025;28;20028;-22
2021/03/22 05:54:18;;;;;;;24.42;15.05;;;;;;;4.62;75.67;98809.47;5024680;28;20030;-22
2021/03/22 05:56:55;;;;;;;18.38;11.75;;;;;;;4.52;74.42;98798.56;4987814;28;20540;-22
2021/03/22 05:59:45;;;;;;;14.20;9.73;;;;;;;4.72;74.75;98817.75;5091068;28;20055;-22
2021/03/22 06:02:30;;;;;;;15.18;10.30;;;;;;;4.43;74.06;98796.16;5107713;28;20166;-22
2021/03/22 06:04:55;;;;;;;14.27;8.88;;;;;;;4.59;74.30;98820.44;5090456;28;20172;-22
2021/03/22 06:07:22;;;;;;;19.58;12.65;;;;;;;4.32;75.27;98815.28;5072112;28;20126;-22
2021/03/22 06:09:56;;;;;;;8.63;5.20;;;;;;;4.45;74.54;98829.44;5089407;28;20020;-22
2021/03/22 06:12:28;;;;;;;12.88;7.13;;;;;;;4.37;74.48;98820.75;5089109;28;20093;-21
2021/03/22 06:15:05;;;;;;;9.50;4.60;;;;;;;4.47;74.56;98828.19;5107731;28;20046;-21
2021/03/22 06:17:35;;;;;;;12.63;6.05;;;;;;;4.00;75.44;98804.63;5107108;28;20029;-22
2021/03/22 06:20:02;;;;;;;14.50;8.73;;;;;;;4.48;73.93;98843.03;5089755;28;20731;-22
2021/03/22 06:22:30;;;;;;;30.00;17.17;;;;;;;4.62;74.37;98836.69;5107712;28;20027;-22
2021/03/22 06:24:56;;;;;;;79.78;42.88;;;;;;;4.72;73.46;98843.31;5072828;28;20028;-22
2021/03/22 06:27:22;;;;;;;27.85;15.80;;;;;;;4.34;74.82;98841.47;5089149;28;20032;-22
2021/03/22 06:29:48;;;;;;;28.27;16.77;;;;;;;4.49;73.83;98841.19;5107594;28;20023;-22
2021/03/22 06:32:20;;;;;;;23.30;15.27;;;;;;;4.53;74.23;98837.91;5089169;28;20142;-22
2021/03/22 06:34:59;;;;;;;42.85;28.08;;;;;;;4.57;74.67;98854.16;5073145;28;20047;-21
2021/03/22 06:37:32;;;;;;;19.92;10.35;;;;;;;4.35;74.39;98840.44;5107084;28;20117;-22
2021/03/22 06:40:11;;;;;;;15.35;11.25;;;;;;;4.42;73.32;98842.03;5089308;28;20023;-22
2021/03/22 06:42:37;;;;;;;43.75;30.60;;;;;;;4.42;73.43;98815.63;5089547;28;20494;-22
2021/03/22 06:45:04;;;;;;;42.92;26.27;;;;;;;4.47;73.78;98827.41;5107295;28;20028;-22
2021/03/22 06:47:32;;;;;;;22.23;15.05;;;;;;;4.50;72.85;98824.34;5088844;28;20043;-22
2021/03/22 06:50:27;;;;;;;14.35;10.13;;;;;;;4.28;73.79;98808.00;5088956;28;20019;-22
2021/03/22 06:52:53;;;;;;;21.95;19.50;;;;;;;4.23;73.04;98801.50;5107362;28;20034;-22
2021/03/22 06:55:29;;;;;;;10.13;8.35;;;;;;;4.32;73.57;98815.28;5106821;28;20027;-22
2021/03/22 06:57:54;;;;;;;9.90;8.63;;;;;;;4.30;74.05;98822.59;5107013;28;20115;-21
2021/03/22 07:00:30;;;;;;;16.35;12.20;;;;;;;4.33;74.51;98835.38;5088755;28;20098;-22
2021/03/22 07:02:58;;;;;;;11.45;10.25;;;;;;;4.24;73.18;98807.59;5089295;28;20509;-22
2021/03/22 07:05:24;;;;;;;7.78;6.45;;;;;;;4.41;73.49;98840.44;5088444;28;20050;-22
2021/03/22 07:07:58;;;;;;;7.75;6.43;;;;;;;4.50;72.23;98833.06;5106975;28;20395;-22
2021/03/22 07:10:27;;;;;;;17.83;10.75;;;;;;;4.47;72.51;98822.13;5107379;28;20062;-22
2021/03/22 07:13:12;;;;;;;11.60;6.18;;;;;;;4.59;72.40;98837.09;5107008;28;20481;-22
2021/03/22 07:15:38;;;;;;;85.80;42.20;;;;;;;4.61;72.18;98836.88;5089050;28;20096;-22
2021/03/22 07:18:11;;;;;;;55.30;30.58;;;;;;;4.49;73.26;98835.91;5088791;28;20449;-22
2021/03/22 07:20:37;;;;;;;26.50;15.60;;;;;;;4.28;73.04;98814.06;5089558;28;20550;-22
2021/03/22 07:23:25;;;;;;;46.13;30.85;;;;;;;4.51;73.94;98833.88;5106810;28;20081;-22
2021/03/22 07:25:55;;;;;;;230.77;95.05;;;;;;;4.32;74.93;98825.81;5109984;28;20011;-22
2021/03/22 07:28:31;;;;;;;28.15;18.45;;;;;;;4.51;73.53;98837.31;5110470;28;20038;-21
2021/03/22 07:31:09;;;;;;;19.90;13.90;;;;;;;4.58;72.76;98832.03;5092095;28;20495;-22
2021/03/22 07:33:48;;;;;;;37.92;20.15;;;;;;;4.42;73.23;98802.44;5092310;28;20027;-22
2021/03/22 07:36:44;;;;;;;25.77;13.70;;;;;;;4.89;71.60;98831.25;5110302;28;20065;-22
2021/03/22 07:39:09;;;;;;;12.88;10.85;;;;;;;4.93;72.23;98831.66;5110718;28;20873;-21
2021/03/22 07:41:41;;;;;;;7.00;3.55;;;;;;;4.98;70.88;98835.25;5110098;28;20035;-22
2021/03/22 07:44:17;;;;;;;44.72;24.13;;;;;;;4.85;71.16;98829.25;5110272;28;20505;-21
2021/03/22 07:47:07;;;;;;;16.90;9.68;;;;;;;4.94;69.96;98835.91;5092083;28;20061;-22
2021/03/22 07:49:49;;;;;;;7.53;4.60;;;;;;;4.35;73.20;98835.16;5110075;28;20081;-22
2021/03/22 07:52:28;;;;;;;5.65;3.17;;;;;;;4.37;73.76;98812.84;5092191;28;20031;-22
2021/03/22 07:55:34;;;;;;;9.63;4.30;;;;;;;4.72;72.04;98828.31;5093238;28;20562;-22
2021/03/22 07:58:25;;;;;;;6.85;2.58;;;;;;;4.37;72.35;98833.94;5078518;28;20039;-22
2021/03/22 08:01:10;;;;;;;5.13;2.80;;;;;;;4.23;74.08;98827.91;5109622;28;20054;-28
2021/03/22 08:04:00;;;;;;;29.30;18.80;;;;;;;4.26;73.46;98831.94;5091795;28;20051;-21
2021/03/22 08:06:53;;;;;;;17.77;11.60;;;;;;;4.21;73.69;98826.50;5109997;28;20045;-22
2021/03/22 08:09:43;;;;;;;6.53;3.50;;;;;;;4.01;74.67;98822.06;5109608;28;20089;-21
2021/03/22 08:12:39;;;;;;;5.82;3.70;;;;;;;3.44;75.50;98796.41;5109652;28;20035;-22
2021/03/22 08:15:36;;;;;;;5.57;3.60;;;;;;;3.36;76.53;98826.41;5109813;28;20063;-21
2021/03/22 08:18:05;;;;;;;6.50;3.93;;;;;;;3.41;77.84;98835.31;5108760;28;20032;-21
2021/03/22 08:20:34;;;;;;;;;;;;;;;3.12;77.52;98831.22;5109786;28;20084;-22
2021/03/22 08:23:12;;;;;;;6.55;3.03;;;;;;;3.17;78.54;98818.28;5091307;28;20310;-21
2021/03/22 08:25:49;;;;;;;7.47;3.40;;;;;;;3.30;76.53;98816.66;5109533;28;20095;-21
2021/03/22 08:28:32;;;;;;;6.05;3.40;;;;;;;3.56;77.39;98816.66;5109476;28;20031;-22
2021/03/22 08:31:19;;;;;;;7.85;4.07;;;;;;;3.35;76.92;98807.16;5109044;28;20040;-22
2021/03/22 08:33:52;;;;;;;8.30;3.75;;;;;;;3.33;77.57;98776.72;5091343;28;20040;-21
2021/03/22 08:36:30;;;;;;;6.90;3.10;;;;;;;3.14;76.77;98765.97;5109141;28;20032;-21
2021/03/22 08:39:25;;;;;;;8.38;5.05;;;;;;;3.57;76.64;98784.00;5092536;28;20080;-22
2021/03/22 08:42:12;;;;;;;12.10;6.95;;;;;;;3.49;76.93;98771.03;5108987;28;20050;-22
2021/03/22 08:44:47;;;;;;;7.18;3.95;;;;;;;3.88;76.07;98782.50;5093335;28;20043;-22
2021/03/22 08:47:41;;;;;;;12.02;5.95;;;;;;;4.17;75.93;98788.34;5108608;28;20039;-21
2021/03/22 08:50:19;;;;;;;8.25;4.10;;;;;;;3.99;73.37;98763.44;5084619;28;20031;-21
2021/03/22 08:53:07;;;;;;;6.75;3.78;;;;;;;4.12;74.76;98798.69;5108895;28;20126;-21
2021/03/22 08:55:38;;;;;;;;;;;;;;;3.97;75.47;98801.59;5093615;28;20035;-22
2021/03/22 08:58:07;;;;;;;3.38;1.92;;;;;;;3.71;75.45;98799.81;5108558;28;19943;-23
2021/03/22 09:00:43;;;;;;;2.20;1.40;;;;;;;3.88;75.50;98800.97;5090197;28;20027;-22
2021/03/22 09:03:15;;;;;;;7.97;5.03;;;;;;;4.08;75.84;98802.78;5090139;28;20056;-21
2021/03/22 09:05:42;;;;;;;9.30;5.47;;;;;;;4.09;74.82;98799.94;5108486;28;20100;-21
2021/03/22 09:08:21;;;;;;;7.60;4.70;;;;;;;4.14;75.55;98796.66;5090378;28;20031;-21
2021/03/22 09:10:51;;;;;;;6.72;3.80;;;;;;;4.46;74.63;98791.47;5090340;28;20860;-22
2021/03/22 09:13:26;;;;;;;7.68;4.32;;;;;;;4.29;74.50;98776.13;5108432;28;20096;-21
2021/03/22 09:16:24;;;;;;;9.48;5.68;;;;;;;4.48;74.71;98789.44;5090216;28;20482;-22
2021/03/22 09:19:08;;;;;;;6.78;3.70;;;;;;;4.44;73.74;98786.41;5108264;28;20829;-21
2021/03/22 09:21:35;;;;;;;6.63;3.97;;;;;;;4.34;74.17;98765.72;5107973;28;20031;-22
2021/03/22 09:24:00;;;;;;;15.50;7.80;;;;;;;4.13;75.41;98780.03;5108348;28;20048;-22
2021/03/22 09:26:51;;;;;;;21.65;12.80;;;;;;;4.06;75.84;98781.88;5108045;28;20637;-22
2021/03/22 09:29:31;;;;;;;23.55;12.93;;;;;;;3.87;77.06;98780.09;5107782;28;20028;-22
2021/03/22 09:31:59;;;;;;;20.55;12.63;;;;;;;3.60;77.56;98780.16;5108198;28;20024;-22
2021/03/22 09:34:37;;;;;;;18.33;10.75;;;;;;;3.49;78.48;98773.66;5089587;28;20508;-22
2021/03/22 09:37:40;;;;;;;19.10;11.90;;;;;;;3.45;78.59;98776.91;5090710;28;20831;-22
2021/03/22 09:40:09;;;;;;;17.13;9.73;;;;;;;3.53;78.32;98768.81;5108123;28;20094;-23
2021/03/22 09:42:34;;;;;;;16.08;10.68;;;;;;;3.57;78.76;98743.66;5089570;28;20020;-22
2021/03/22 09:45:00;;;;;;;17.08;9.82;;;;;;;3.66;77.90;98752.97;5107680;28;20533;-22
2021/03/22 09:47:29;;;;;;;19.25;12.02;;;;;;;3.62;78.05;98751.78;5107171;28;20034;-21
2021/03/22 09:52:32;;;;;;;14.57;8.88;;;;;;;3.81;77.60;98753.53;5107921;28;20036;-22
2021/03/22 09:54:58;;;;;;;13.23;8.40;;;;;;;3.55;78.10;98757.03;5107813;28;20039;-23
2021/03/22 09:57:41;;;;;;;15.35;9.35;;;;;;;3.74;78.17;98752.75;5089371;28;20019;-21
2021/03/22 10:00:22;;;;;;;12.55;8.00;;;;;;;3.78;78.29;98761.03;5072944;28;20035;-22
2021/03/22 10:02:50;;;;;;;9.02;5.45;;;;;;;3.49;78.28;98757.84;5107363;28;20087;-21
2021/03/22 10:05:15;;;;;;;9.93;6.85;;;;;;;3.37;79.91;98751.56;5107449;28;20435;-21
2021/03/22 10:07:41;;;;;;;10.30;6.65;;;;;;;3.62;79.17;98767.59;5107555;28;20067;-21
2021/03/22 10:10:29;;;;;;;13.40;7.78;;;;;;;3.51;78.96;98771.63;5089217;28;20099;-21
2021/03/22 10:13:02;;;;;;;24.38;12.45;;;;;;;3.73;79.25;98764.31;5107562;28;20031;-22
2021/03/22 10:15:30;;;;;;;10.23;6.07;;;;;;;3.68;79.57;98771.19;5089318;28;20062;-21
2021/03/22 10:18:10;;;;;;;9.35;3.92;;;;;;;3.69;78.90;98771.00;5089367;28;20028;-21
2021/03/22 10:20:42;;;;;;;7.85;4.32;;;;;;;3.45;79.42;98755.84;5089177;28;20027;-21
2021/03/22 10:23:28;;;;;;;7.75;4.95;;;;;;;3.87;77.61;98777.47;5107763;28;20458;-21
2021/03/22 10:26:03;;;;;;;12.60;6.75;;;;;;;3.87;77.61;98790.66;5106711;28;20043;-22
2021/03/22 10:28:29;;;;;;;10.75;6.20;;;;;;;3.86;77.93;98779.28;5072838;28;20036;-22
2021/03/22 10:31:00;;;;;;;13.52;7.97;;;;;;;3.90;76.75;98779.69;5107420;28;20024;-22
2021/03/22 10:33:25;;;;;;;10.65;6.47;;;;;;;3.80;77.37;98775.66;5073428;28;20032;-21
2021/03/22 10:35:58;;;;;;;13.13;7.28;;;;;;;3.73;79.10;98763.50;5089520;28;20034;-22
2021/03/22 10:38:30;;;;;;;24.83;18.80;;;;;;;3.97;78.29;98777.84;5073144;28;20034;-22
2021/03/22 10:40:56;;;;;;;18.10;11.85;;;;;;;4.11;77.48;98782.06;5089145;28;20019;-22
2021/03/22 10:43:35;;;;;;;45.30;29.27;;;;;;;4.18;77.19;98758.28;5107025;28;20107;-22
2021/03/22 10:46:23;;;;;;;24.23;13.65;;;;;;;4.28;77.10;98782.41;5107733;28;20027;-26
2021/03/22 10:49:22;;;;;;;68.72;38.90;;;;;;;4.52;77.68;98777.44;5089207;28;20096;-22
2021/03/22 10:51:51;;;;;;;12.18;7.07;;;;;;;4.42;76.26;98775.25;5107212;28;20071;-22
2021/03/22 10:54:40;;;;;;;27.17;15.70;;;;;;;4.10;76.94;98753.25;5089404;28;20031;-21
2021/03/22 10:57:06;;;;;;;29.58;17.08;;;;;;;4.08;78.03;98734.19;5106816;28;20515;-22
2021/03/22 10:59:35;;;;;;;37.15;21.98;;;;;;;4.32;77.35;98736.09;5073164;28;20042;-22
2021/03/22 11:02:01;;;;;;;26.70;16.65;;;;;;;4.38;76.26;98739.72;5092613;28;20507;-22
2021/03/22 11:04:28;;;;;;;38.60;23.77;;;;;;;4.60;77.08;98766.63;5076103;28;20066;-22
2021/03/22 11:06:55;;;;;;;57.15;32.53;;;;;;;4.55;76.28;98758.50;5076135;28;20059;-21
2021/03/22 11:09:23;;;;;;;30.48;19.17;;;;;;;4.49;77.29;98735.59;5075625;28;20479;-21
2021/03/22 11:11:49;;;;;;;50.70;28.73;;;;;;;4.61;77.67;98739.19;5110854;28;20049;-22
2021/03/22 11:14:17;;;;;;;28.58;17.92;;;;;;;4.65;76.58;98735.09;5092841;28;20036;-22
2021/03/22 11:16:43;;;;;;;31.45;20.02;;;;;;;4.61;76.85;98723.34;5075842;28;20106;-22
2021/03/22 11:19:25;;;;;;;38.03;22.58;;;;;;;5.03;76.23;98739.50;5092598;28;20482;-21
2021/03/22 11:21:52;;;;;;;28.75;14.52;;;;;;;4.82;76.72;98715.09;5110543;28;20024;-22
2021/03/22 11:24:31;;;;;;;24.02;14.25;;;;;;;4.77;75.88;98733.38;5110538;28;20410;-22
2021/03/22 11:26:58;;;;;;;26.25;14.82;;;;;;;4.57;74.96;98732.72;5092710;28;21033;-22
2021/03/22 11:29:24;;;;;;;32.72;21.25;;;;;;;4.67;76.85;98722.50;5110383;28;20024;-21
2021/03/22 11:31:55;;;;;;;30.10;20.40;;;;;;;4.58;76.39;98700.81;5110624;28;20035;-22
2021/03/22 11:34:29;;;;;;;18.92;12.35;;;;;;;5.15;75.95;98734.31;5092387;28;20023;-22
2021/03/22 11:37:08;;;;;;;25.95;16.60;;;;;;;4.79;75.61;98720.78;5093092;28;20031;-22
2021/03/22 11:39:34;;;;;;;9.20;5.40;;;;;;;4.93;75.40;98710.13;5059621;28;20031;-22
2021/03/22 11:42:05;;;;;;;11.35;6.75;;;;;;;5.20;76.24;98722.06;5092450;28;20028;-21
2021/03/22 11:44:36;;;;;;;11.68;6.35;;;;;;;5.26;74.72;98709.03;5110222;28;20019;-22
2021/03/22 11:47:34;;;;;;;12.70;7.47;;;;;;;5.25;74.87;98697.66;5110133;28;20020;-22
2021/03/22 11:50:00;;;;;;;10.40;7.28;;;;;;;5.32;75.66;98734.59;5091807;28;20031;-21
2021/03/22 11:52:29;;;;;;;10.15;5.57;;;;;;;5.07;74.81;98722.19;5109996;28;20040;-22
2021/03/22 11:55:00;;;;;;;8.10;5.88;;;;;;;5.09;75.42;98722.78;5091776;28;20028;-22
2021/03/22 11:57:31;;;;;;;11.45;7.45;;;;;;;5.26;74.59;98736.25;5110021;28;20117;-22